sensor_id;sensor_type;location;lat;lon;timestamp;P1;durP1;ratioP1;P2;durP2;ratioP2
4903;SDS011;2467;48.142;11.616;2023-11-18T00:00:25;9.23;;;8.43;;
4903;SDS011;2467;48.142;11.616;2023-11-18T00:00:58;9.38;;;8.57;;
4903;SDS011;2467;48.142;11.616;2023-11-18T00:01:33;10.98;;;9.90;;
4903;SDS011;2467;48.142;11.616;2023-11-18T00:02:05;7.78;;;7.07;;
4903;SDS011;2467;48.142;11.616;2023-11-18T00:02:39;9.30;;;8.43;;
4903;SDS011;2467;48.142;11.616;2023-11-18T00:03:13;10.10;;;9.15;;
4903;SDS011;2467;48.142;11.616;2023-11-18T00:03:45;10.00;;;9.00;;
4903;SDS011;2467;48.142;11.616;2023-11-18T00:04:17;9.68;;;8.88;;
4903;SDS011;2467;48.142;11.616;2023-11-18T00:04:50;9.70;;;8.70;;
4903;SDS011;2467;48.142;11.616;2023-11-18T00:05:22;10.18;;;9.27;;
4903;SDS011;2467;48.142;11.616;2023-11-18T00:05:55;10.65;;;9.65;;
4903;SDS011;2467;48.142;11.616;2023-11-18T00:06:26;11.63;;;9.25;;
4903;SDS011;2467;48.142;11.616;2023-11-18T00:06:59;10.70;;;9.70;;
4903;SDS011;2467;48.142;11.616;2023-11-18T00:07:32;9.18;;;8.40;;
4903;SDS011;2467;48.142;11.616;2023-11-18T00:08:04;9.93;;;9.10;;
4903;SDS011;2467;48.142;11.616;2023-11-18T00:08:36;8.90;;;8.15;;
4903;SDS011;2467;48.142;11.616;2023-11-18T00:09:09;9.75;;;8.80;;
4903;SDS011;2467;48.142;11.616;2023-11-18T00:09:41;9.63;;;8.73;;
4903;SDS011;2467;48.142;11.616;2023-11-18T00:10:16;9.85;;;9.05;;
4903;SDS011;2467;48.142;11.616;2023-11-18T00:10:50;9.65;;;8.65;;
4903;SDS011;2467;48.142;11.616;2023-11-18T00:11:23;8.77;;;7.97;;
4903;SDS011;2467;48.142;11.616;2023-11-18T00:11:55;9.25;;;8.35;;
4903;SDS011;2467;48.142;11.616;2023-11-18T00:12:27;8.82;;;7.97;;
4903;SDS011;2467;48.142;11.616;2023-11-18T00:12:59;9.93;;;9.02;;
4903;SDS011;2467;48.142;11.616;2023-11-18T00:13:33;9.45;;;8.45;;
4903;SDS011;2467;48.142;11.616;2023-11-18T00:14:05;9.38;;;8.57;;
4903;SDS011;2467;48.142;11.616;2023-11-18T00:14:38;11.85;;;9.20;;
4903;SDS011;2467;48.142;11.616;2023-11-18T00:15:11;10.05;;;9.05;;
4903;SDS011;2467;48.142;11.616;2023-11-18T00:15:44;8.48;;;7.78;;
4903;SDS011;2467;48.142;11.616;2023-11-18T00:16:19;9.18;;;8.20;;
4903;SDS011;2467;48.142;11.616;2023-11-18T00:16:51;10.10;;;9.20;;
4903;SDS011;2467;48.142;11.616;2023-11-18T00:17:23;9.75;;;8.75;;
4903;SDS011;2467;48.142;11.616;2023-11-18T00:17:55;8.73;;;7.93;;
4903;SDS011;2467;48.142;11.616;2023-11-18T00:18:28;9.60;;;8.68;;
4903;SDS011;2467;48.142;11.616;2023-11-18T00:19:00;8.68;;;7.80;;
4903;SDS011;2467;48.142;11.616;2023-11-18T00:19:32;9.07;;;8.27;;
4903;SDS011;2467;48.142;11.616;2023-11-18T00:20:06;9.65;;;8.45;;
4903;SDS011;2467;48.142;11.616;2023-11-18T00:20:43;9.13;;;8.23;;
4903;SDS011;2467;48.142;11.616;2023-11-18T00:21:15;10.55;;;9.60;;
4903;SDS011;2467;48.142;11.616;2023-11-18T00:21:47;9.40;;;8.50;;
4903;SDS011;2467;48.142;11.616;2023-11-18T00:22:20;9.95;;;9.15;;
4903;SDS011;2467;48.142;11.616;2023-11-18T00:22:52;11.20;;;10.20;;
4903;SDS011;2467;48.142;11.616;2023-11-18T00:23:26;9.73;;;8.65;;
4903;SDS011;2467;48.142;11.616;2023-11-18T00:24:00;9.52;;;8.73;;
4903;SDS011;2467;48.142;11.616;2023-11-18T00:24:32;9.85;;;8.95;;
4903;SDS011;2467;48.142;11.616;2023-11-18T00:25:06;8.45;;;7.75;;
4903;SDS011;2467;48.142;11.616;2023-11-18T00:25:39;9.27;;;8.38;;
4903;SDS011;2467;48.142;11.616;2023-11-18T00:26:12;9.48;;;8.57;;
4903;SDS011;2467;48.142;11.616;2023-11-18T00:26:45;9.25;;;8.40;;
4903;SDS011;2467;48.142;11.616;2023-11-18T00:27:18;9.30;;;8.50;;
4903;SDS011;2467;48.142;11.616;2023-11-18T00:27:50;8.95;;;8.15;;
4903;SDS011;2467;48.142;11.616;2023-11-18T00:28:22;8.95;;;8.15;;
4903;SDS011;2467;48.142;11.616;2023-11-18T00:28:55;8.90;;;8.10;;
4903;SDS011;2467;48.142;11.616;2023-11-18T00:29:27;8.88;;;8.07;;
4903;SDS011;2467;48.142;11.616;2023-11-18T00:29:59;9.73;;;8.80;;
4903;SDS011;2467;48.142;11.616;2023-11-18T00:30:31;9.20;;;8.40;;
4903;SDS011;2467;48.142;11.616;2023-11-18T00:31:04;8.90;;;8.05;;
4903;SDS011;2467;48.142;11.616;2023-11-18T00:31:36;9.50;;;8.43;;
4903;SDS011;2467;48.142;11.616;2023-11-18T00:32:08;9.00;;;8.18;;
4903;SDS011;2467;48.142;11.616;2023-11-18T00:32:40;9.02;;;8.20;;
4903;SDS011;2467;48.142;11.616;2023-11-18T00:33:12;9.57;;;8.68;;
4903;SDS011;2467;48.142;11.616;2023-11-18T00:33:45;9.38;;;8.02;;
4903;SDS011;2467;48.142;11.616;2023-11-18T00:34:17;7.53;;;6.90;;
4903;SDS011;2467;48.142;11.616;2023-11-18T00:34:49;8.35;;;7.65;;
4903;SDS011;2467;48.142;11.616;2023-11-18T00:35:21;8.20;;;7.50;;
4903;SDS011;2467;48.142;11.616;2023-11-18T00:35:54;8.82;;;8.07;;
4903;SDS011;2467;48.142;11.616;2023-11-18T00:36:26;8.77;;;7.97;;
4903;SDS011;2467;48.142;11.616;2023-11-18T00:36:59;8.63;;;7.88;;
4903;SDS011;2467;48.142;11.616;2023-11-18T00:37:31;8.55;;;7.82;;
4903;SDS011;2467;48.142;11.616;2023-11-18T00:38:04;8.68;;;7.78;;
4903;SDS011;2467;48.142;11.616;2023-11-18T00:38:36;7.93;;;7.30;;
4903;SDS011;2467;48.142;11.616;2023-11-18T00:39:09;7.05;;;6.45;;
4903;SDS011;2467;48.142;11.616;2023-11-18T00:39:40;7.85;;;7.15;;
4903;SDS011;2467;48.142;11.616;2023-11-18T00:40:13;8.70;;;6.88;;
4903;SDS011;2467;48.142;11.616;2023-11-18T00:40:48;6.70;;;6.20;;
4903;SDS011;2467;48.142;11.616;2023-11-18T00:41:21;7.60;;;7.00;;
4903;SDS011;2467;48.142;11.616;2023-11-18T00:41:54;7.15;;;6.65;;
4903;SDS011;2467;48.142;11.616;2023-11-18T00:42:27;7.13;;;6.53;;
4903;SDS011;2467;48.142;11.616;2023-11-18T00:42:59;7.07;;;6.47;;
4903;SDS011;2467;48.142;11.616;2023-11-18T00:43:30;6.80;;;6.20;;
4903;SDS011;2467;48.142;11.616;2023-11-18T00:44:03;7.35;;;6.65;;
4903;SDS011;2467;48.142;11.616;2023-11-18T00:44:38;7.32;;;6.72;;
4903;SDS011;2467;48.142;11.616;2023-11-18T00:45:10;7.18;;;6.55;;
4903;SDS011;2467;48.142;11.616;2023-11-18T00:45:43;7.00;;;6.30;;
4903;SDS011;2467;48.142;11.616;2023-11-18T00:46:16;6.40;;;5.80;;
4903;SDS011;2467;48.142;11.616;2023-11-18T00:46:49;6.45;;;5.90;;
4903;SDS011;2467;48.142;11.616;2023-11-18T00:47:21;7.05;;;6.38;;
4903;SDS011;2467;48.142;11.616;2023-11-18T00:47:54;5.70;;;5.30;;
4903;SDS011;2467;48.142;11.616;2023-11-18T00:48:27;6.50;;;5.90;;
4903;SDS011;2467;48.142;11.616;2023-11-18T00:48:59;6.40;;;5.80;;
4903;SDS011;2467;48.142;11.616;2023-11-18T00:49:31;6.75;;;6.15;;
4903;SDS011;2467;48.142;11.616;2023-11-18T00:50:05;6.10;;;5.60;;
4903;SDS011;2467;48.142;11.616;2023-11-18T00:50:40;5.85;;;5.45;;
4903;SDS011;2467;48.142;11.616;2023-11-18T00:51:12;6.07;;;5.57;;
4903;SDS011;2467;48.142;11.616;2023-11-18T00:51:44;6.75;;;6.15;;
4903;SDS011;2467;48.142;11.616;2023-11-18T00:52:16;6.18;;;5.68;;
4903;SDS011;2467;48.142;11.616;2023-11-18T00:52:49;5.10;;;4.70;;
4903;SDS011;2467;48.142;11.616;2023-11-18T00:53:21;5.68;;;4.93;;
4903;SDS011;2467;48.142;11.616;2023-11-18T00:53:53;5.88;;;5.47;;
4903;SDS011;2467;48.142;11.616;2023-11-18T00:54:26;5.90;;;5.35;;
4903;SDS011;2467;48.142;11.616;2023-11-18T00:54:59;6.15;;;5.55;;
4903;SDS011;2467;48.142;11.616;2023-11-18T00:55:31;6.22;;;5.68;;
4903;SDS011;2467;48.142;11.616;2023-11-18T00:56:04;5.93;;;5.43;;
4903;SDS011;2467;48.142;11.616;2023-11-18T00:56:40;5.40;;;4.93;;
4903;SDS011;2467;48.142;11.616;2023-11-18T00:57:13;5.93;;;5.40;;
4903;SDS011;2467;48.142;11.616;2023-11-18T00:57:45;6.00;;;5.50;;
4903;SDS011;2467;48.142;11.616;2023-11-18T00:58:18;5.70;;;4.80;;
4903;SDS011;2467;48.142;11.616;2023-11-18T00:58:50;4.70;;;4.40;;
4903;SDS011;2467;48.142;11.616;2023-11-18T00:59:23;5.22;;;4.82;;
4903;SDS011;2467;48.142;11.616;2023-11-18T00:59:55;6.00;;;5.45;;
4903;SDS011;2467;48.142;11.616;2023-11-18T01:00:29;5.75;;;5.30;;
4903;SDS011;2467;48.142;11.616;2023-11-18T01:01:03;4.88;;;4.47;;
4903;SDS011;2467;48.142;11.616;2023-11-18T01:01:37;5.45;;;5.05;;
4903;SDS011;2467;48.142;11.616;2023-11-18T01:02:10;5.18;;;4.78;;
4903;SDS011;2467;48.142;11.616;2023-11-18T01:02:43;6.15;;;5.65;;
4903;SDS011;2467;48.142;11.616;2023-11-18T01:03:15;5.28;;;4.78;;
4903;SDS011;2467;48.142;11.616;2023-11-18T01:03:47;5.57;;;5.13;;
4903;SDS011;2467;48.142;11.616;2023-11-18T01:04:19;5.72;;;5.22;;
4903;SDS011;2467;48.142;11.616;2023-11-18T01:04:52;6.20;;;5.60;;
4903;SDS011;2467;48.142;11.616;2023-11-18T01:05:24;5.05;;;4.65;;
4903;SDS011;2467;48.142;11.616;2023-11-18T01:05:56;6.10;;;5.00;;
4903;SDS011;2467;48.142;11.616;2023-11-18T01:06:28;4.90;;;4.50;;
4903;SDS011;2467;48.142;11.616;2023-11-18T01:07:01;5.45;;;4.95;;
4903;SDS011;2467;48.142;11.616;2023-11-18T01:07:33;4.47;;;4.18;;
4903;SDS011;2467;48.142;11.616;2023-11-18T01:08:05;5.15;;;4.75;;
4903;SDS011;2467;48.142;11.616;2023-11-18T01:08:40;5.75;;;5.25;;
4903;SDS011;2467;48.142;11.616;2023-11-18T01:09:12;5.25;;;4.85;;
4903;SDS011;2467;48.142;11.616;2023-11-18T01:09:43;4.40;;;4.10;;
4903;SDS011;2467;48.142;11.616;2023-11-18T01:10:16;4.90;;;4.53;;
4903;SDS011;2467;48.142;11.616;2023-11-18T01:10:50;4.43;;;4.13;;
4903;SDS011;2467;48.142;11.616;2023-11-18T01:11:23;4.80;;;4.38;;
4903;SDS011;2467;48.142;11.616;2023-11-18T01:11:56;4.25;;;3.95;;
4903;SDS011;2467;48.142;11.616;2023-11-18T01:12:39;4.97;;;4.57;;
4903;SDS011;2467;48.142;11.616;2023-11-18T01:13:12;4.75;;;4.38;;
4903;SDS011;2467;48.142;11.616;2023-11-18T01:13:44;4.47;;;4.15;;
4903;SDS011;2467;48.142;11.616;2023-11-18T01:14:17;5.57;;;5.18;;
4903;SDS011;2467;48.142;11.616;2023-11-18T01:14:50;4.47;;;4.13;;
4903;SDS011;2467;48.142;11.616;2023-11-18T01:15:23;4.70;;;4.40;;
4903;SDS011;2467;48.142;11.616;2023-11-18T01:15:55;4.60;;;4.30;;
4903;SDS011;2467;48.142;11.616;2023-11-18T01:16:27;4.45;;;4.10;;
4903;SDS011;2467;48.142;11.616;2023-11-18T01:16:59;4.50;;;4.05;;
4903;SDS011;2467;48.142;11.616;2023-11-18T01:17:32;4.32;;;3.95;;
4903;SDS011;2467;48.142;11.616;2023-11-18T01:18:05;4.43;;;4.05;;
4903;SDS011;2467;48.142;11.616;2023-11-18T01:18:37;4.15;;;3.75;;
4903;SDS011;2467;48.142;11.616;2023-11-18T01:19:10;4.05;;;3.75;;
4903;SDS011;2467;48.142;11.616;2023-11-18T01:19:43;4.30;;;4.00;;
4903;SDS011;2467;48.142;11.616;2023-11-18T01:20:15;4.32;;;4.03;;
4903;SDS011;2467;48.142;11.616;2023-11-18T01:20:53;5.03;;;4.57;;
4903;SDS011;2467;48.142;11.616;2023-11-18T01:21:26;4.95;;;4.55;;
4903;SDS011;2467;48.142;11.616;2023-11-18T01:21:58;3.95;;;3.67;;
4903;SDS011;2467;48.142;11.616;2023-11-18T01:22:30;4.22;;;3.92;;
4903;SDS011;2467;48.142;11.616;2023-11-18T01:23:02;4.10;;;3.80;;
4903;SDS011;2467;48.142;11.616;2023-11-18T01:23:35;4.53;;;4.13;;
4903;SDS011;2467;48.142;11.616;2023-11-18T01:24:08;4.90;;;4.50;;
4903;SDS011;2467;48.142;11.616;2023-11-18T01:24:40;4.40;;;4.10;;
4903;SDS011;2467;48.142;11.616;2023-11-18T01:25:12;4.68;;;4.28;;
4903;SDS011;2467;48.142;11.616;2023-11-18T01:25:48;4.32;;;4.00;;
4903;SDS011;2467;48.142;11.616;2023-11-18T01:26:22;4.32;;;4.00;;
4903;SDS011;2467;48.142;11.616;2023-11-18T01:26:54;4.20;;;3.90;;
4903;SDS011;2467;48.142;11.616;2023-11-18T01:27:27;4.05;;;3.75;;
4903;SDS011;2467;48.142;11.616;2023-11-18T01:28:00;4.55;;;3.78;;
4903;SDS011;2467;48.142;11.616;2023-11-18T01:28:35;4.53;;;4.22;;
4903;SDS011;2467;48.142;11.616;2023-11-18T01:29:08;4.50;;;4.20;;
4903;SDS011;2467;48.142;11.616;2023-11-18T01:29:41;4.20;;;3.90;;
4903;SDS011;2467;48.142;11.616;2023-11-18T01:30:13;4.63;;;4.32;;
4903;SDS011;2467;48.142;11.616;2023-11-18T01:30:46;3.80;;;3.50;;
4903;SDS011;2467;48.142;11.616;2023-11-18T01:31:18;5.57;;;5.07;;
4903;SDS011;2467;48.142;11.616;2023-11-18T01:31:50;4.55;;;4.10;;
4903;SDS011;2467;48.142;11.616;2023-11-18T01:32:24;4.43;;;3.97;;
4903;SDS011;2467;48.142;11.616;2023-11-18T01:32:57;3.97;;;3.67;;
4903;SDS011;2467;48.142;11.616;2023-11-18T01:33:29;3.50;;;3.20;;
4903;SDS011;2467;48.142;11.616;2023-11-18T01:34:03;3.70;;;3.47;;
4903;SDS011;2467;48.142;11.616;2023-11-18T01:34:35;4.40;;;4.10;;
4903;SDS011;2467;48.142;11.616;2023-11-18T01:35:09;3.78;;;3.38;;
4903;SDS011;2467;48.142;11.616;2023-11-18T01:35:43;3.83;;;3.53;;
4903;SDS011;2467;48.142;11.616;2023-11-18T01:36:15;4.03;;;3.72;;
4903;SDS011;2467;48.142;11.616;2023-11-18T01:36:49;4.18;;;3.88;;
4903;SDS011;2467;48.142;11.616;2023-11-18T01:37:21;3.72;;;3.40;;
4903;SDS011;2467;48.142;11.616;2023-11-18T01:37:55;3.97;;;3.67;;
4903;SDS011;2467;48.142;11.616;2023-11-18T01:38:28;3.95;;;3.67;;
4903;SDS011;2467;48.142;11.616;2023-11-18T01:39:01;4.03;;;3.72;;
4903;SDS011;2467;48.142;11.616;2023-11-18T01:39:34;3.90;;;3.60;;
4903;SDS011;2467;48.142;11.616;2023-11-18T01:40:07;4.32;;;3.83;;
4903;SDS011;2467;48.142;11.616;2023-11-18T01:40:40;3.13;;;2.92;;
4903;SDS011;2467;48.142;11.616;2023-11-18T01:41:12;3.53;;;3.22;;
4903;SDS011;2467;48.142;11.616;2023-11-18T01:41:44;3.63;;;3.42;;
4903;SDS011;2467;48.142;11.616;2023-11-18T01:42:17;3.42;;;3.15;;
4903;SDS011;2467;48.142;11.616;2023-11-18T01:42:51;3.83;;;3.60;;
4903;SDS011;2467;48.142;11.616;2023-11-18T01:43:23;3.42;;;3.13;;
4903;SDS011;2467;48.142;11.616;2023-11-18T01:43:55;4.40;;;3.72;;
4903;SDS011;2467;48.142;11.616;2023-11-18T01:44:28;3.25;;;3.05;;
4903;SDS011;2467;48.142;11.616;2023-11-18T01:45:00;3.70;;;3.40;;
4903;SDS011;2467;48.142;11.616;2023-11-18T01:45:34;3.85;;;3.55;;
4903;SDS011;2467;48.142;11.616;2023-11-18T01:46:07;3.10;;;2.90;;
4903;SDS011;2467;48.142;11.616;2023-11-18T01:46:44;3.78;;;3.47;;
4903;SDS011;2467;48.142;11.616;2023-11-18T01:47:17;3.33;;;3.10;;
4903;SDS011;2467;48.142;11.616;2023-11-18T01:47:49;4.18;;;3.80;;
4903;SDS011;2467;48.142;11.616;2023-11-18T01:48:23;4.00;;;3.70;;
4903;SDS011;2467;48.142;11.616;2023-11-18T01:48:56;4.20;;;3.40;;
4903;SDS011;2467;48.142;11.616;2023-11-18T01:49:29;3.25;;;3.05;;
4903;SDS011;2467;48.142;11.616;2023-11-18T01:50:01;3.28;;;3.08;;
4903;SDS011;2467;48.142;11.616;2023-11-18T01:50:37;3.80;;;3.50;;
4903;SDS011;2467;48.142;11.616;2023-11-18T01:51:11;3.83;;;3.58;;
4903;SDS011;2467;48.142;11.616;2023-11-18T01:51:44;5.10;;;4.70;;
4903;SDS011;2467;48.142;11.616;2023-11-18T01:52:17;6.05;;;5.45;;
4903;SDS011;2467;48.142;11.616;2023-11-18T01:52:53;3.53;;;3.25;;
4903;SDS011;2467;48.142;11.616;2023-11-18T01:53:24;4.45;;;4.10;;
4903;SDS011;2467;48.142;11.616;2023-11-18T01:53:58;4.00;;;3.70;;
4903;SDS011;2467;48.142;11.616;2023-11-18T01:54:31;3.95;;;3.55;;
4903;SDS011;2467;48.142;11.616;2023-11-18T01:55:03;4.35;;;4.05;;
4903;SDS011;2467;48.142;11.616;2023-11-18T01:55:38;4.10;;;3.80;;
4903;SDS011;2467;48.142;11.616;2023-11-18T01:56:11;3.97;;;3.75;;
4903;SDS011;2467;48.142;11.616;2023-11-18T01:56:43;3.85;;;3.63;;
4903;SDS011;2467;48.142;11.616;2023-11-18T01:57:18;5.30;;;4.90;;
4903;SDS011;2467;48.142;11.616;2023-11-18T01:57:52;5.65;;;4.13;;
4903;SDS011;2467;48.142;11.616;2023-11-18T01:58:24;4.30;;;4.00;;
4903;SDS011;2467;48.142;11.616;2023-11-18T01:58:57;3.53;;;3.33;;
4903;SDS011;2467;48.142;11.616;2023-11-18T01:59:30;4.28;;;3.88;;
4903;SDS011;2467;48.142;11.616;2023-11-18T02:00:05;4.30;;;3.90;;
4903;SDS011;2467;48.142;11.616;2023-11-18T02:00:42;4.25;;;3.90;;
4903;SDS011;2467;48.142;11.616;2023-11-18T02:01:17;3.92;;;3.63;;
4903;SDS011;2467;48.142;11.616;2023-11-18T02:01:50;4.20;;;3.90;;
4903;SDS011;2467;48.142;11.616;2023-11-18T02:02:24;4.05;;;3.75;;
4903;SDS011;2467;48.142;11.616;2023-11-18T02:02:57;4.70;;;4.30;;
4903;SDS011;2467;48.142;11.616;2023-11-18T02:03:29;3.78;;;3.47;;
4903;SDS011;2467;48.142;11.616;2023-11-18T02:04:02;4.93;;;4.43;;
4903;SDS011;2467;48.142;11.616;2023-11-18T02:04:37;4.65;;;4.35;;
4903;SDS011;2467;48.142;11.616;2023-11-18T02:05:09;3.85;;;3.55;;
4903;SDS011;2467;48.142;11.616;2023-11-18T02:05:44;4.65;;;4.25;;
4903;SDS011;2467;48.142;11.616;2023-11-18T02:06:16;4.00;;;3.70;;
4903;SDS011;2467;48.142;11.616;2023-11-18T02:06:48;3.85;;;3.47;;
4903;SDS011;2467;48.142;11.616;2023-11-18T02:07:21;6.68;;;3.60;;
4903;SDS011;2467;48.142;11.616;2023-11-18T02:07:53;4.00;;;3.70;;
4903;SDS011;2467;48.142;11.616;2023-11-18T02:08:28;4.03;;;3.70;;
4903;SDS011;2467;48.142;11.616;2023-11-18T02:09:00;4.60;;;4.20;;
4903;SDS011;2467;48.142;11.616;2023-11-18T02:09:32;3.90;;;3.60;;
4903;SDS011;2467;48.142;11.616;2023-11-18T02:10:06;4.43;;;4.13;;
4903;SDS011;2467;48.142;11.616;2023-11-18T02:10:44;3.55;;;3.33;;
4903;SDS011;2467;48.142;11.616;2023-11-18T02:11:20;4.05;;;3.75;;
4903;SDS011;2467;48.142;11.616;2023-11-18T02:12:00;4.25;;;3.95;;
4903;SDS011;2467;48.142;11.616;2023-11-18T02:12:43;4.55;;;4.25;;
4903;SDS011;2467;48.142;11.616;2023-11-18T02:13:22;3.97;;;3.67;;
4903;SDS011;2467;48.142;11.616;2023-11-18T02:13:56;3.70;;;3.40;;
4903;SDS011;2467;48.142;11.616;2023-11-18T02:14:34;3.72;;;3.42;;
4903;SDS011;2467;48.142;11.616;2023-11-18T02:15:08;4.35;;;3.95;;
4903;SDS011;2467;48.142;11.616;2023-11-18T02:15:44;3.30;;;3.10;;
4903;SDS011;2467;48.142;11.616;2023-11-18T02:16:16;3.65;;;3.38;;
4903;SDS011;2467;48.142;11.616;2023-11-18T02:16:51;3.72;;;3.42;;
4903;SDS011;2467;48.142;11.616;2023-11-18T02:17:27;3.85;;;3.50;;
4903;SDS011;2467;48.142;11.616;2023-11-18T02:18:01;4.30;;;4.00;;
4903;SDS011;2467;48.142;11.616;2023-11-18T02:18:36;4.30;;;4.00;;
4903;SDS011;2467;48.142;11.616;2023-11-18T02:19:19;4.03;;;3.72;;
4903;SDS011;2467;48.142;11.616;2023-11-18T02:19:52;4.45;;;4.10;;
4903;SDS011;2467;48.142;11.616;2023-11-18T02:20:24;4.40;;;4.00;;
4903;SDS011;2467;48.142;11.616;2023-11-18T02:20:57;4.65;;;4.25;;
4903;SDS011;2467;48.142;11.616;2023-11-18T02:21:31;4.03;;;3.72;;
4903;SDS011;2467;48.142;11.616;2023-11-18T02:22:04;3.92;;;3.60;;
4903;SDS011;2467;48.142;11.616;2023-11-18T02:22:38;3.75;;;3.55;;
4903;SDS011;2467;48.142;11.616;2023-11-18T02:23:13;4.18;;;3.78;;
4903;SDS011;2467;48.142;11.616;2023-11-18T02:23:47;4.38;;;4.00;;
4903;SDS011;2467;48.142;11.616;2023-11-18T02:24:26;3.75;;;3.40;;
4903;SDS011;2467;48.142;11.616;2023-11-18T02:25:01;4.20;;;3.90;;
4903;SDS011;2467;48.142;11.616;2023-11-18T02:25:41;3.80;;;3.50;;
4903;SDS011;2467;48.142;11.616;2023-11-18T02:26:20;4.25;;;3.95;;
4903;SDS011;2467;48.142;11.616;2023-11-18T02:26:53;4.32;;;4.03;;
4903;SDS011;2467;48.142;11.616;2023-11-18T02:27:27;3.65;;;3.35;;
4903;SDS011;2467;48.142;11.616;2023-11-18T02:28:00;4.22;;;3.92;;
4903;SDS011;2467;48.142;11.616;2023-11-18T02:28:31;3.90;;;3.60;;
4903;SDS011;2467;48.142;11.616;2023-11-18T02:29:04;3.80;;;3.50;;
4903;SDS011;2467;48.142;11.616;2023-11-18T02:29:37;4.35;;;3.95;;
4903;SDS011;2467;48.142;11.616;2023-11-18T02:30:12;4.30;;;3.92;;
4903;SDS011;2467;48.142;11.616;2023-11-18T02:30:48;4.05;;;3.75;;
4903;SDS011;2467;48.142;11.616;2023-11-18T02:31:28;3.38;;;3.17;;
4903;SDS011;2467;48.142;11.616;2023-11-18T02:32:11;4.22;;;3.92;;
4903;SDS011;2467;48.142;11.616;2023-11-18T02:32:55;3.75;;;3.45;;
4903;SDS011;2467;48.142;11.616;2023-11-18T02:33:35;4.10;;;3.80;;
4903;SDS011;2467;48.142;11.616;2023-11-18T02:34:12;4.00;;;3.67;;
4903;SDS011;2467;48.142;11.616;2023-11-18T02:34:53;4.10;;;3.80;;
4903;SDS011;2467;48.142;11.616;2023-11-18T02:35:34;4.03;;;3.72;;
4903;SDS011;2467;48.142;11.616;2023-11-18T02:36:13;4.20;;;3.90;;
4903;SDS011;2467;48.142;11.616;2023-11-18T02:36:49;4.10;;;3.80;;
4903;SDS011;2467;48.142;11.616;2023-11-18T02:37:22;3.67;;;3.45;;
4903;SDS011;2467;48.142;11.616;2023-11-18T02:37:56;3.95;;;3.65;;
4903;SDS011;2467;48.142;11.616;2023-11-18T02:38:30;4.05;;;3.75;;
4903;SDS011;2467;48.142;11.616;2023-11-18T02:39:11;4.43;;;4.03;;
4903;SDS011;2467;48.142;11.616;2023-11-18T02:39:50;4.25;;;3.95;;
4903;SDS011;2467;48.142;11.616;2023-11-18T02:40:32;4.05;;;3.75;;
4903;SDS011;2467;48.142;11.616;2023-11-18T02:41:09;3.97;;;3.67;;
4903;SDS011;2467;48.142;11.616;2023-11-18T02:41:44;5.25;;;4.90;;
4903;SDS011;2467;48.142;11.616;2023-11-18T02:42:23;4.25;;;3.95;;
4903;SDS011;2467;48.142;11.616;2023-11-18T02:42:56;4.35;;;3.95;;
4903;SDS011;2467;48.142;11.616;2023-11-18T02:43:30;3.95;;;3.65;;
4903;SDS011;2467;48.142;11.616;2023-11-18T02:44:02;4.80;;;4.40;;
4903;SDS011;2467;48.142;11.616;2023-11-18T02:44:39;4.22;;;4.00;;
4903;SDS011;2467;48.142;11.616;2023-11-18T02:45:12;3.90;;;3.60;;
4903;SDS011;2467;48.142;11.616;2023-11-18T02:45:48;4.35;;;4.00;;
4903;SDS011;2467;48.142;11.616;2023-11-18T02:46:20;4.25;;;3.95;;
4903;SDS011;2467;48.142;11.616;2023-11-18T02:46:54;4.55;;;4.25;;
4903;SDS011;2467;48.142;11.616;2023-11-18T02:47:27;4.07;;;3.78;;
4903;SDS011;2467;48.142;11.616;2023-11-18T02:47:59;4.40;;;4.10;;
4903;SDS011;2467;48.142;11.616;2023-11-18T02:48:31;4.43;;;4.03;;
4903;SDS011;2467;48.142;11.616;2023-11-18T02:49:04;4.60;;;4.25;;
4903;SDS011;2467;48.142;11.616;2023-11-18T02:49:36;4.30;;;3.97;;
4903;SDS011;2467;48.142;11.616;2023-11-18T02:50:08;4.90;;;4.50;;
4903;SDS011;2467;48.142;11.616;2023-11-18T02:50:42;3.83;;;3.53;;
4903;SDS011;2467;48.142;11.616;2023-11-18T02:51:15;3.67;;;3.42;;
4903;SDS011;2467;48.142;11.616;2023-11-18T02:51:47;4.50;;;4.10;;
4903;SDS011;2467;48.142;11.616;2023-11-18T02:52:19;4.93;;;4.53;;
4903;SDS011;2467;48.142;11.616;2023-11-18T02:52:51;3.95;;;3.55;;
4903;SDS011;2467;48.142;11.616;2023-11-18T02:53:24;4.45;;;4.05;;
4903;SDS011;2467;48.142;11.616;2023-11-18T02:53:56;7.20;;;4.55;;
4903;SDS011;2467;48.142;11.616;2023-11-18T02:54:28;4.03;;;3.72;;
4903;SDS011;2467;48.142;11.616;2023-11-18T02:55:00;4.57;;;4.28;;
4903;SDS011;2467;48.142;11.616;2023-11-18T02:55:34;4.70;;;4.32;;
4903;SDS011;2467;48.142;11.616;2023-11-18T02:56:08;4.68;;;4.38;;
4903;SDS011;2467;48.142;11.616;2023-11-18T02:56:40;3.90;;;3.60;;
4903;SDS011;2467;48.142;11.616;2023-11-18T02:57:12;4.78;;;4.47;;
4903;SDS011;2467;48.142;11.616;2023-11-18T02:57:45;4.43;;;4.13;;
4903;SDS011;2467;48.142;11.616;2023-11-18T02:58:18;4.22;;;3.92;;
4903;SDS011;2467;48.142;11.616;2023-11-18T02:58:49;4.03;;;3.72;;
4903;SDS011;2467;48.142;11.616;2023-11-18T02:59:22;4.18;;;3.85;;
4903;SDS011;2467;48.142;11.616;2023-11-18T02:59:54;4.32;;;3.92;;
4903;SDS011;2467;48.142;11.616;2023-11-18T03:00:26;3.92;;;3.63;;
4903;SDS011;2467;48.142;11.616;2023-11-18T03:00:59;4.75;;;4.35;;
4903;SDS011;2467;48.142;11.616;2023-11-18T03:01:35;4.20;;;3.90;;
4903;SDS011;2467;48.142;11.616;2023-11-18T03:02:10;4.10;;;3.80;;
4903;SDS011;2467;48.142;11.616;2023-11-18T03:02:42;4.00;;;3.70;;
4903;SDS011;2467;48.142;11.616;2023-11-18T03:03:14;4.30;;;4.00;;
4903;SDS011;2467;48.142;11.616;2023-11-18T03:03:48;4.55;;;4.18;;
4903;SDS011;2467;48.142;11.616;2023-11-18T03:04:20;4.32;;;3.92;;
4903;SDS011;2467;48.142;11.616;2023-11-18T03:04:52;4.25;;;3.95;;
4903;SDS011;2467;48.142;11.616;2023-11-18T03:05:28;5.30;;;4.80;;
4903;SDS011;2467;48.142;11.616;2023-11-18T03:06:00;5.03;;;4.63;;
4903;SDS011;2467;48.142;11.616;2023-11-18T03:06:31;4.70;;;4.30;;
4903;SDS011;2467;48.142;11.616;2023-11-18T03:07:03;4.30;;;3.90;;
4903;SDS011;2467;48.142;11.616;2023-11-18T03:07:40;4.88;;;4.50;;
4903;SDS011;2467;48.142;11.616;2023-11-18T03:08:13;3.63;;;3.33;;
4903;SDS011;2467;48.142;11.616;2023-11-18T03:08:45;4.18;;;3.88;;
4903;SDS011;2467;48.142;11.616;2023-11-18T03:09:17;4.03;;;3.80;;
4903;SDS011;2467;48.142;11.616;2023-11-18T03:09:50;4.20;;;3.90;;
4903;SDS011;2467;48.142;11.616;2023-11-18T03:10:22;4.35;;;4.05;;
4903;SDS011;2467;48.142;11.616;2023-11-18T03:10:54;5.18;;;4.85;;
4903;SDS011;2467;48.142;11.616;2023-11-18T03:11:27;4.70;;;4.15;;
4903;SDS011;2467;48.142;11.616;2023-11-18T03:12:01;3.70;;;3.40;;
4903;SDS011;2467;48.142;11.616;2023-11-18T03:12:33;4.72;;;4.43;;
4903;SDS011;2467;48.142;11.616;2023-11-18T03:13:05;4.45;;;4.15;;
4903;SDS011;2467;48.142;11.616;2023-11-18T03:13:38;4.80;;;4.40;;
4903;SDS011;2467;48.142;11.616;2023-11-18T03:14:11;4.63;;;4.22;;
4903;SDS011;2467;48.142;11.616;2023-11-18T03:14:44;4.10;;;3.80;;
4903;SDS011;2467;48.142;11.616;2023-11-18T03:15:16;4.88;;;4.38;;
4903;SDS011;2467;48.142;11.616;2023-11-18T03:15:48;4.15;;;3.85;;
4903;SDS011;2467;48.142;11.616;2023-11-18T03:16:22;4.32;;;3.95;;
4903;SDS011;2467;48.142;11.616;2023-11-18T03:16:55;4.40;;;4.10;;
4903;SDS011;2467;48.142;11.616;2023-11-18T03:17:27;4.93;;;4.50;;
4903;SDS011;2467;48.142;11.616;2023-11-18T03:17:59;4.95;;;3.88;;
4903;SDS011;2467;48.142;11.616;2023-11-18T03:18:32;4.10;;;3.80;;
4903;SDS011;2467;48.142;11.616;2023-11-18T03:19:04;4.63;;;4.32;;
4903;SDS011;2467;48.142;11.616;2023-11-18T03:19:36;4.15;;;3.85;;
4903;SDS011;2467;48.142;11.616;2023-11-18T03:20:10;4.57;;;4.28;;
4903;SDS011;2467;48.142;11.616;2023-11-18T03:20:45;5.20;;;4.80;;
4903;SDS011;2467;48.142;11.616;2023-11-18T03:21:17;4.00;;;3.70;;
4903;SDS011;2467;48.142;11.616;2023-11-18T03:21:50;3.70;;;3.40;;
4903;SDS011;2467;48.142;11.616;2023-11-18T03:22:24;4.28;;;3.97;;
4903;SDS011;2467;48.142;11.616;2023-11-18T03:22:58;4.40;;;4.07;;
4903;SDS011;2467;48.142;11.616;2023-11-18T03:23:31;5.47;;;5.07;;
4903;SDS011;2467;48.142;11.616;2023-11-18T03:24:04;4.40;;;4.00;;
4903;SDS011;2467;48.142;11.616;2023-11-18T03:24:37;4.25;;;3.85;;